Time;durP1;ratioP1;P1;durP2;ratioP2;P2;SDS_P1;SDS_P2;PMS_P1;PMS_P2;Temp;Humidity;BMP_temperature;BMP_pressure;BME280_temperature;BME280_humidity;BME280_pressure;Samples;Min_cycle;Max_cycle;Signal;HPM_P1;HPM_P2
2022/11/16 00:02:10;;;;;;;;;;;9.40;99.90;;;;;;5053289;28;19920;-76
2022/11/16 00:04:35;;;;;;;;;;;9.30;99.90;;;;;;5053554;28;19991;-77
2022/11/16 00:07:04;;;;;;;;;;;9.30;99.90;;;;;;5035293;28;19917;-76
2022/11/16 00:09:30;;;;;;;;;;;9.30;99.90;;;;;;5035341;28;20385;-77
2022/11/16 00:12:00;;;;;;;;;;;9.30;99.90;;;;;;5053518;28;19909;-77
2022/11/16 00:14:29;;;;;;;;;;;9.30;99.90;;;;;;5053187;28;19909;-75
2022/11/16 00:16:55;;;;;;;;;;;9.40;99.90;;;;;;5053398;28;19916;-77
2022/11/16 00:19:21;;;;;;;;;;;9.30;99.90;;;;;;5055594;28;19913;-76
2022/11/16 00:21:47;;;;;;;;;;;9.40;99.90;;;;;;5056987;28;19979;-77
2022/11/16 00:24:14;;;;;;;;;;;9.30;99.90;;;;;;5039009;28;19909;-77
2022/11/16 00:26:39;;;;;;;;;;;9.40;99.90;;;;;;5057361;28;19928;-78
2022/11/16 00:29:09;;;;;;;;;;;9.40;99.90;;;;;;5056829;28;19909;-76
2022/11/16 00:31:34;;;;;;;;;;;9.30;99.90;;;;;;5058155;28;19952;-76
2022/11/16 00:34:00;;;;;;;;;;;9.30;99.90;;;;;;5057801;28;19908;-76
2022/11/16 00:36:25;;;;;;;;;;;9.20;99.90;;;;;;5057985;28;20458;-76
2022/11/16 00:38:52;;;;;;;;;;;9.20;99.90;;;;;;5056968;28;19959;-75
2022/11/16 00:41:18;;;;;;;;;;;9.10;99.90;;;;;;5038739;28;20267;-77
2022/11/16 00:43:43;;;;;;;;;;;9.10;99.90;;;;;;5056759;28;19916;-78
2022/11/16 00:46:09;;;;;;;;;;;9.10;99.90;;;;;;5056734;28;19917;-77
2022/11/16 00:48:34;;;;;;;;;;;9.10;99.90;;;;;;5056478;28;20317;-74
2022/11/16 00:51:00;;;;;;;;;;;9.20;99.90;;;;;;5056223;28;19935;-77
2022/11/16 00:53:25;;;;;;;;;;;9.10;99.90;;;;;;5057477;28;19917;-75
2022/11/16 00:55:51;;;;;;;;;;;9.10;99.90;;;;;;5056642;28;19913;-78
2022/11/16 00:58:16;;;;;;;;;;;9.10;99.90;;;;;;5056592;28;19996;-76
2022/11/16 01:00:42;;;;;;;;;;;9.10;99.90;;;;;;5056304;28;19913;-76
2022/11/16 01:03:07;;;;;;;;;;;9.00;99.90;;;;;;5056218;28;19958;-76
2022/11/16 01:05:33;;;;;;;;;;;9.10;99.90;;;;;;5056397;28;19913;-75
2022/11/16 01:07:59;;;;;;;;;;;9.20;99.90;;;;;;5038288;28;19917;-76
2022/11/16 01:10:25;;;;;;;;;;;9.20;99.90;;;;;;5056382;28;19908;-76
2022/11/16 01:12:51;;;;;;;;;;;9.20;99.90;;;;;;5038159;28;19966;-76
2022/11/16 01:15:18;;;;;;;;;;;9.20;99.90;;;;;;5055982;28;20388;-77
2022/11/16 01:17:44;;;;;;;;;;;9.30;99.90;;;;;;5056228;28;19909;-76
2022/11/16 01:20:11;;;;;;;;;;;9.30;99.90;;;;;;5055890;28;20401;-76
2022/11/16 01:22:38;;;;;;;;;;;9.20;99.90;;;;;;5055868;28;20445;-76
2022/11/16 01:25:04;;;;;;;;;;;9.20;99.90;;;;;;5056272;28;19909;-77
2022/11/16 01:27:29;;;;;;;;;;;9.20;99.90;;;;;;5037838;28;19931;-77
2022/11/16 01:29:55;;;;;;;;;;;9.10;99.90;;;;;;5055798;28;20418;-76
2022/11/16 01:32:20;;;;;;;;;;;9.10;99.90;;;;;;5055668;28;19919;-78
2022/11/16 01:34:46;;;;;;;;;;;9.20;99.90;;;;;;5055607;28;19951;-77
2022/11/16 01:37:12;;;;;;;;;;;9.20;99.90;;;;;;5056151;28;19909;-76
2022/11/16 01:39:37;;;;;;;;;;;9.10;99.90;;;;;;5055531;28;20387;-76
2022/11/16 01:42:03;;;;;;;;;;;9.20;99.90;;;;;;5055481;28;19963;-76
2022/11/16 01:44:32;;;;;;;;;;;9.20;99.90;;;;;;5055377;28;19909;-78
2022/11/16 01:47:01;;;;;;;;;;;9.20;99.90;;;;;;5055589;28;19913;-76
2022/11/16 01:49:29;;;;;;;;;;;9.10;99.90;;;;;;5055272;28;20335;-77
2022/11/16 01:52:07;;;;;;;;;;;9.10;99.90;;;;;;5055903;28;19921;-75
2022/11/16 01:54:35;;;;;;;;;;;9.10;99.90;;;;;;5055542;28;20282;-74
2022/11/16 01:57:02;;;;;;;;;;;9.10;99.90;;;;;;5037290;28;20382;-74
2022/11/16 01:59:28;;;;;;;;;;;9.20;99.90;;;;;;5055139;28;20395;-76
2022/11/16 02:01:54;;;;;;;;;;;9.10;99.90;;;;;;5055091;28;19962;-75
2022/11/16 02:04:19;;;;;;;;;;;9.10;99.90;;;;;;5037176;28;20054;-76
2022/11/16 02:07:03;;;;;;;;;;;9.10;99.90;;;;;;5055188;28;19960;-76
2022/11/16 02:12:32;;;;;;;;;;;9.20;99.90;;;;;;5054698;28;19931;-75
2022/11/16 02:15:06;;;;;;;;;;;9.10;99.90;;;;;;5036919;28;19908;-76
2022/11/16 02:17:47;;;;;;;;;;;9.10;99.90;;;;;;5055116;28;19908;-77
2022/11/16 02:20:15;;;;;;;;;;;9.10;99.90;;;;;;5054718;28;19909;-77
2022/11/16 02:23:04;;;;;;;;;;;9.20;99.90;;;;;;5054960;28;20277;-76
2022/11/16 02:25:29;;;;;;;;;;;9.30;99.90;;;;;;5054587;28;19913;-77
2022/11/16 02:28:13;;;;;;;;;;;9.30;99.90;;;;;;5054860;28;19909;-76
2022/11/16 02:30:41;;;;;;;;;;;9.30;99.90;;;;;;5054504;28;19920;-78
2022/11/16 02:33:08;;;;;;;;;;;9.40;99.90;;;;;;5054764;28;19913;-77
2022/11/16 02:35:41;;;;;;;;;;;9.50;99.90;;;;;;5054420;28;19991;-75
2022/11/16 02:38:16;;;;;;;;;;;9.40;99.90;;;;;;5054965;28;19933;-77
2022/11/16 02:40:43;;;;;;;;;;;9.40;99.90;;;;;;5053878;28;20366;-76
2022/11/16 02:43:11;;;;;;;;;;;9.40;99.90;;;;;;5054147;28;20397;-75
2022/11/16 02:45:39;;;;;;;;;;;9.40;99.90;;;;;;5054213;28;20378;-78
2022/11/16 02:48:07;;;;;;;;;;;9.40;99.90;;;;;;5054212;28;19916;-76
2022/11/16 02:50:34;;;;;;;;;;;9.40;99.90;;;;;;5036337;28;19995;-76
2022/11/16 02:53:00;;;;;;;;;;;9.40;99.90;;;;;;5054294;28;20448;-76
2022/11/16 02:55:27;;;;;;;;;;;9.40;99.90;;;;;;5054142;28;19948;-75
2022/11/16 02:58:00;;;;;;;;;;;9.50;99.90;;;;;;5054362;28;20002;-75
2022/11/16 03:00:28;;;;;;;;;;;9.50;99.90;;;;;;5054039;28;19909;-77
2022/11/16 03:02:54;;;;;;;;;;;9.50;99.90;;;;;;5054535;28;19916;-76
2022/11/16 03:05:43;;;;;;;;;;;9.60;99.90;;;;;;5053852;28;19912;-77
2022/11/16 03:08:11;;;;;;;;;;;9.60;99.90;;;;;;5054243;28;19916;-77
2022/11/16 03:13:23;;;;;;;;;;;9.60;99.90;;;;;;5053849;28;20286;-76
2022/11/16 03:15:49;;;;;;;;;;;9.70;99.90;;;;;;5053774;28;19909;-77
2022/11/16 03:18:15;;;;;;;;;;;9.70;99.90;;;;;;5053727;28;19915;-78
2022/11/16 03:20:41;;;;;;;;;;;9.70;99.90;;;;;;5053707;28;19936;-77
2022/11/16 03:23:09;;;;;;;;;;;9.80;99.90;;;;;;5054253;28;19909;-76
2022/11/16 03:25:44;;;;;;;;;;;9.80;99.90;;;;;;5053525;28;20316;-77
2022/11/16 03:28:15;;;;;;;;;;;9.80;99.90;;;;;;5054197;28;20281;-76
2022/11/16 03:30:49;;;;;;;;;;;9.90;99.90;;;;;;5053585;28;19916;-77
2022/11/16 03:33:20;;;;;;;;;;;9.90;99.90;;;;;;5054112;28;19909;-76
2022/11/16 03:35:46;;;;;;;;;;;9.90;99.90;;;;;;5053523;28;19909;-78
2022/11/16 03:38:13;;;;;;;;;;;9.90;99.90;;;;;;5054027;28;20354;-76
2022/11/16 03:40:39;;;;;;;;;;;9.90;99.90;;;;;;5053743;28;19908;-76
2022/11/16 03:43:05;;;;;;;;;;;9.90;99.90;;;;;;5053387;28;20007;-76
2022/11/16 03:45:31;;;;;;;;;;;9.90;99.90;;;;;;5053959;28;19916;-74
2022/11/16 03:47:57;;;;;;;;;;;9.90;99.90;;;;;;5053431;28;19955;-77
2022/11/16 03:50:22;;;;;;;;;;;9.90;99.90;;;;;;5053434;28;19909;-75
2022/11/16 03:52:48;;;;;;;;;;;9.80;99.90;;;;;;5053561;28;20283;-75
2022/11/16 03:55:13;;;;;;;;;;;9.90;99.90;;;;;;5057459;28;19908;-74
2022/11/16 03:57:39;;;;;;;;;;;9.90;99.90;;;;;;5057726;28;19959;-76
2022/11/16 04:00:05;;;;;;;;;;;9.80;99.90;;;;;;5057419;28;19944;-75
2022/11/16 04:02:31;;;;;;;;;;;9.80;99.90;;;;;;5057337;28;19927;-78
2022/11/16 04:24:15;;;;;;;;;;;9.50;99.90;;;;;;5057282;28;19915;-76
2022/11/16 04:29:26;;;;;;;;;;;9.50;99.90;;;;;;5057203;28;19915;-76
2022/11/16 04:40:05;;;;;;;;;;;9.40;99.90;;;;;;5056430;28;20450;-75
2022/11/16 04:42:30;;;;;;;;;;;9.50;99.90;;;;;;5057124;28;20007;-76
2022/11/16 04:47:40;;;;;;;;;;;9.50;99.90;;;;;;5056566;28;19919;-75
2022/11/16 04:50:06;;;;;;;;;;;9.60;99.90;;;;;;5056495;28;19909;-76
2022/11/16 04:52:31;;;;;;;;;;;9.70;99.90;;;;;;5056737;28;19968;-75
2022/11/16 04:54:57;;;;;;;;;;;9.70;99.90;;;;;;5056394;28;19909;-75
2022/11/16 04:57:22;;;;;;;;;;;9.80;99.90;;;;;;5056598;28;19912;-76
2022/11/16 04:59:48;;;;;;;;;;;9.80;99.90;;;;;;5056280;28;19959;-77
2022/11/16 05:02:14;;;;;;;;;;;9.80;99.90;;;;;;5056569;28;19955;-76
2022/11/16 05:04:40;;;;;;;;;;;9.90;99.90;;;;;;5055634;28;19908;-76
2022/11/16 05:07:09;;;;;;;;;;;9.90;99.90;;;;;;5056102;28;19913;-76
2022/11/16 05:09:38;;;;;;;;;;;9.90;99.90;;;;;;5056115;28;20329;-76
2022/11/16 05:12:04;;;;;;;;;;;10.00;99.90;;;;;;5056053;28;19913;-76
2022/11/16 05:14:30;;;;;;;;;;;10.00;99.90;;;;;;5056343;28;20355;-76
2022/11/16 05:16:55;;;;;;;;;;;10.00;99.90;;;;;;5055932;28;19916;-77
2022/11/16 05:22:05;;;;;;;;;;;10.00;99.90;;;;;;5056211;28;20286;-76
2022/11/16 05:24:33;;;;;;;;;;;10.00;99.90;;;;;;5056110;28;20016;-76
2022/11/16 05:27:06;;;;;;;;;;;10.00;99.90;;;;;;5038655;28;19913;-75
2022/11/16 05:29:31;;;;;;;;;;;10.00;99.90;;;;;;5055745;28;19952;-76
2022/11/16 05:31:57;;;;;;;;;;;10.00;99.90;;;;;;5055718;28;19916;-77
2022/11/16 05:34:23;;;;;;;;;;;9.90;99.90;;;;;;5056215;28;19909;-75
2022/11/16 05:36:49;;;;;;;;;;;9.90;99.90;;;;;;5055614;28;20444;-76
2022/11/16 05:39:15;;;;;;;;;;;9.90;99.90;;;;;;5055533;28;19909;-75
2022/11/16 05:41:40;;;;;;;;;;;9.90;99.90;;;;;;5055543;28;20382;-76
2022/11/16 05:44:06;;;;;;;;;;;9.90;99.90;;;;;;5055422;28;19958;-77
2022/11/16 05:46:31;;;;;;;;;;;9.90;99.90;;;;;;5055591;28;19921;-76
2022/11/16 05:48:57;;;;;;;;;;;9.90;99.90;;;;;;5055407;28;19909;-76
2022/11/16 05:51:22;;;;;;;;;;;9.90;99.90;;;;;;5055354;28;20340;-76
2022/11/16 05:53:48;;;;;;;;;;;9.90;99.90;;;;;;5056044;28;20476;-75
2022/11/16 05:56:14;;;;;;;;;;;9.90;99.90;;;;;;5055225;28;19909;-76
2022/11/16 05:58:40;;;;;;;;;;;9.90;99.90;;;;;;5055232;28;19909;-76
2022/11/16 06:01:05;;;;;;;;;;;9.90;99.90;;;;;;5055715;28;20289;-76
2022/11/16 06:03:31;;;;;;;;;;;9.90;99.90;;;;;;5055129;28;19913;-77
2022/11/16 06:05:57;;;;;;;;;;;9.80;99.90;;;;;;5054999;28;20385;-75
2022/11/16 06:08:22;;;;;;;;;;;9.80;99.90;;;;;;5055324;28;20349;-76
2022/11/16 06:10:48;;;;;;;;;;;9.70;99.90;;;;;;5055000;28;19912;-76
2022/11/16 06:13:14;;;;;;;;;;;9.70;99.90;;;;;;5055572;28;20317;-77
2022/11/16 06:15:39;;;;;;;;;;;9.60;99.90;;;;;;5036868;28;20394;-75
2022/11/16 06:18:06;;;;;;;;;;;9.60;99.90;;;;;;5055478;28;19909;-75
2022/11/16 06:20:31;;;;;;;;;;;9.50;99.90;;;;;;5054710;28;19921;-76
2022/11/16 06:22:57;;;;;;;;;;;9.50;99.90;;;;;;5036784;28;20009;-75
2022/11/16 06:25:23;;;;;;;;;;;9.50;99.90;;;;;;5054584;28;19999;-76
2022/11/16 06:27:48;;;;;;;;;;;9.40;99.90;;;;;;5036742;28;20011;-75
2022/11/16 06:30:14;;;;;;;;;;;9.50;99.90;;;;;;5054582;28;19909;-78
2022/11/16 06:32:40;;;;;;;;;;;9.50;99.90;;;;;;5054110;28;20338;-75
2022/11/16 06:35:05;;;;;;;;;;;9.50;99.90;;;;;;5055089;28;20404;-77
2022/11/16 06:37:31;;;;;;;;;;;9.50;99.90;;;;;;5054377;28;19913;-77
2022/11/16 06:39:56;;;;;;;;;;;9.50;99.90;;;;;;5054417;28;20389;-74
2022/11/16 06:42:22;;;;;;;;;;;9.50;99.90;;;;;;5036388;28;19978;-75
2022/11/16 06:44:47;;;;;;;;;;;9.50;99.90;;;;;;5054494;28;19931;-75
2022/11/16 06:47:13;;;;;;;;;;;9.50;99.90;;;;;;5054174;28;20263;-75
2022/11/16 06:49:38;;;;;;;;;;;9.50;99.90;;;;;;5054271;28;19955;-76
2022/11/16 06:52:04;;;;;;;;;;;9.50;99.90;;;;;;5054000;28;19928;-76
2022/11/16 06:54:30;;;;;;;;;;;9.50;99.90;;;;;;5055150;28;19909;-76
2022/11/16 06:56:55;;;;;;;;;;;9.50;99.90;;;;;;5036143;28;19955;-76
2022/11/16 06:59:21;;;;;;;;;;;9.50;99.90;;;;;;5054606;28;19967;-76
2022/11/16 07:01:46;;;;;;;;;;;9.40;99.90;;;;;;5054322;28;19908;-77
2022/11/16 07:04:14;;;;;;;;;;;9.40;99.90;;;;;;5053988;28;19932;-76
2022/11/16 07:06:40;;;;;;;;;;;9.40;99.90;;;;;;5053829;28;19959;-76
2022/11/16 07:09:06;;;;;;;;;;;9.50;99.90;;;;;;5036058;28;19912;-75
2022/11/16 07:11:32;;;;;;;;;;;9.50;99.90;;;;;;5054441;28;19920;-76
2022/11/16 07:13:58;;;;;;;;;;;9.50;99.90;;;;;;5053832;28;19916;-77
2022/11/16 07:16:24;;;;;;;;;;;9.50;99.90;;;;;;5053802;28;20286;-75
2022/11/16 07:18:49;;;;;;;;;;;9.50;99.90;;;;;;5054022;28;19912;-77
2022/11/16 07:21:15;;;;;;;;;;;9.40;99.90;;;;;;5053748;28;20401;-76
2022/11/16 07:23:41;;;;;;;;;;;9.50;99.90;;;;;;5035857;28;19909;-77
2022/11/16 07:26:07;;;;;;;;;;;9.50;99.90;;;;;;5053643;28;19912;-77
2022/11/16 07:28:33;;;;;;;;;;;9.50;99.90;;;;;;5053433;28;19913;-77
2022/11/16 07:31:02;;;;;;;;;;;9.60;99.90;;;;;;5053891;28;19955;-78
2022/11/16 07:33:28;;;;;;;;;;;9.60;99.90;;;;;;5053612;28;20286;-76
2022/11/16 07:35:53;;;;;;;;;;;9.60;99.90;;;;;;5053623;28;19992;-77
2022/11/16 07:38:19;;;;;;;;;;;9.60;99.90;;;;;;5053532;28;20274;-76
2022/11/16 07:40:45;;;;;;;;;;;9.70;99.90;;;;;;5053495;28;19916;-75
2022/11/16 07:43:11;;;;;;;;;;;9.70;99.90;;;;;;5053429;28;19909;-76
2022/11/16 07:45:37;;;;;;;;;;;9.70;99.90;;;;;;5053679;28;19963;-76
2022/11/16 07:48:02;;;;;;;;;;;9.70;99.90;;;;;;5053412;28;19948;-77
2022/11/16 07:50:28;;;;;;;;;;;9.70;99.90;;;;;;5035466;28;19962;-77
2022/11/16 07:52:54;;;;;;;;;;;9.70;99.90;;;;;;5053511;28;20003;-76
2022/11/16 07:55:20;;;;;;;;;;;9.70;99.90;;;;;;5035509;28;20331;-76
2022/11/16 07:57:45;;;;;;;;;;;9.80;99.90;;;;;;5053367;28;20051;-77
2022/11/16 08:00:11;;;;;;;;;;;9.80;99.90;;;;;;5053572;28;19920;-77
2022/11/16 08:02:36;;;;;;;;;;;9.80;99.90;;;;;;5053281;28;19909;-76
2022/11/16 08:05:02;;;;;;;;;;;9.80;99.90;;;;;;5053270;28;19909;-75
2022/11/16 08:07:27;;;;;;;;;;;9.90;99.90;;;;;;5053166;28;19920;-76
2022/11/16 08:09:53;;;;;;;;;;;9.90;99.90;;;;;;5053488;28;19959;-76
2022/11/16 08:12:18;;;;;;;;;;;10.00;99.90;;;;;;5053182;28;19954;-75
2022/11/16 08:14:44;;;;;;;;;;;10.00;99.90;;;;;;5035306;28;19951;-76
2022/11/16 08:17:09;;;;;;;;;;;10.00;99.90;;;;;;5053178;28;20000;-75
2022/11/16 08:19:35;;;;;;;;;;;10.00;99.90;;;;;;5053389;28;19909;-76
2022/11/16 08:22:01;;;;;;;;;;;10.10;99.90;;;;;;5053103;28;20278;-77
2022/11/16 08:24:26;;;;;;;;;;;10.10;99.90;;;;;;5053119;28;20015;-76
2022/11/16 08:26:53;;;;;;;;;;;10.10;99.90;;;;;;5035171;28;19913;-75
2022/11/16 08:29:18;;;;;;;;;;;10.10;99.90;;;;;;5053347;28;20320;-76
2022/11/16 08:31:44;;;;;;;;;;;10.10;99.90;;;;;;5053069;28;19908;-77
2022/11/16 08:34:10;;;;;;;;;;;10.20;99.90;;;;;;5053062;28;20341;-76
2022/11/16 08:36:35;;;;;;;;;;;10.10;99.90;;;;;;5052994;28;20278;-77
2022/11/16 08:39:01;;;;;;;;;;;10.10;99.90;;;;;;5053854;28;19959;-75
2022/11/16 08:41:26;;;;;;;;;;;10.20;99.90;;;;;;5056993;28;19909;-75
2022/11/16 08:43:52;;;;;;;;;;;10.30;99.90;;;;;;5056562;28;19993;-77
2022/11/16 08:46:18;;;;;;;;;;;10.40;99.90;;;;;;5038578;28;19967;-76
2022/11/16 08:48:44;;;;;;;;;;;10.50;99.90;;;;;;5056805;28;20366;-75
2022/11/16 08:51:11;;;;;;;;;;;10.50;99.90;;;;;;5056281;28;19940;-75
2022/11/16 08:53:37;;;;;;;;;;;10.60;99.90;;;;;;5057527;28;19915;-76
2022/11/16 08:56:07;;;;;;;;;;;10.70;99.90;;;;;;5056372;28;19909;-76
2022/11/16 08:58:33;;;;;;;;;;;10.80;99.90;;;;;;5056666;28;20247;-74
2022/11/16 09:01:05;;;;;;;;;;;10.90;99.90;;;;;;5056294;28;19909;-77
2022/11/16 09:03:30;;;;;;;;;;;10.90;99.90;;;;;;5056595;28;20484;-76
2022/11/16 09:05:57;;;;;;;;;;;10.90;99.90;;;;;;5056114;28;19914;-76
2022/11/16 09:08:23;;;;;;;;;;;11.00;99.90;;;;;;5056481;28;20445;-74
2022/11/16 09:10:48;;;;;;;;;;;11.10;99.90;;;;;;5056044;28;19952;-76
2022/11/16 09:13:14;;;;;;;;;;;11.20;99.90;;;;;;5056076;28;19940;-77
2022/11/16 09:15:39;;;;;;;;;;;11.20;99.90;;;;;;5056311;28;19954;-76
2022/11/16 09:18:05;;;;;;;;;;;11.30;99.90;;;;;;5055917;28;20324;-74
2022/11/16 09:20:30;;;;;;;;;;;11.30;99.90;;;;;;5055946;28;19909;-76
2022/11/16 09:22:56;;;;;;;;;;;11.30;99.90;;;;;;5056203;28;19908;-76
2022/11/16 09:25:22;;;;;;;;;;;11.30;99.90;;;;;;5055872;28;19913;-75
2022/11/16 09:27:47;;;;;;;;;;;11.20;99.90;;;;;;5056094;28;19966;-75
2022/11/16 09:30:13;;;;;;;;;;;11.20;99.90;;;;;;5055700;28;19909;-75
2022/11/16 09:32:39;;;;;;;;;;;11.10;99.90;;;;;;5055693;28;19916;-75
2022/11/16 09:35:05;;;;;;;;;;;11.10;99.90;;;;;;5055650;28;19909;-75
2022/11/16 09:37:30;;;;;;;;;;;11.00;99.90;;;;;;5055629;28;20329;-74
2022/11/16 09:39:57;;;;;;;;;;;11.00;99.90;;;;;;5055545;28;19909;-74
2022/11/16 09:42:31;;;;;;;;;;;10.90;99.90;;;;;;5055496;28;19912;-75
2022/11/16 09:44:58;;;;;;;;;;;10.90;99.90;;;;;;5056024;28;19966;-76
2022/11/16 09:47:35;;;;;;;;;;;10.90;99.90;;;;;;5055388;28;19913;-76
2022/11/16 09:50:01;;;;;;;;;;;10.80;99.90;;;;;;5055893;28;19958;-74
2022/11/16 09:52:27;;;;;;;;;;;10.80;99.90;;;;;;5048020;28;19978;-76
2022/11/16 09:54:53;;;;;;;;;;;10.90;99.90;;;;;;5055827;28;19909;-74
2022/11/16 09:57:22;;;;;;;;;;;10.90;99.90;;;;;;5055561;28;19966;-76
2022/11/16 09:59:51;;;;;;;;;;;10.80;99.90;;;;;;5055239;28;20385;-76
2022/11/16 10:02:23;;;;;;;;;;;10.90;99.90;;;;;;5055181;28;20295;-74
2022/11/16 10:04:56;;;;;;;;;;;10.90;99.90;;;;;;5055111;28;19909;-75
2022/11/16 10:07:25;;;;;;;;;;;10.90;99.90;;;;;;5055331;28;19924;-76
2022/11/16 10:09:51;;;;;;;;;;;10.90;99.90;;;;;;5055022;28;19908;-76
2022/11/16 10:12:30;;;;;;;;;;;10.90;99.90;;;;;;5053670;28;19908;-76
2022/11/16 10:15:00;;;;;;;;;;;11.00;99.90;;;;;;5053592;28;19999;-75
2022/11/16 10:17:37;;;;;;;;;;;11.00;99.90;;;;;;5055272;28;19909;-74
2022/11/16 10:20:21;;;;;;;;;;;11.00;99.90;;;;;;5053343;28;19931;-74
2022/11/16 10:23:11;;;;;;;;;;;11.00;99.90;;;;;;5054828;28;19913;-76
2022/11/16 10:25:43;;;;;;;;;;;11.10;99.90;;;;;;5054940;28;19909;-73
2022/11/16 10:28:12;;;;;;;;;;;11.10;99.90;;;;;;5054656;28;19913;-74
2022/11/16 10:30:42;;;;;;;;;;;11.10;99.90;;;;;;5054740;28;19962;-74
2022/11/16 10:33:13;;;;;;;;;;;11.20;99.90;;;;;;5055142;28;19908;-75
2022/11/16 10:35:55;;;;;;;;;;;11.10;99.90;;;;;;5054636;28;20319;-73
2022/11/16 10:38:26;;;;;;;;;;;11.10;99.90;;;;;;5054879;28;19909;-76
2022/11/16 10:40:55;;;;;;;;;;;11.10;99.90;;;;;;5054461;28;20430;-75
2022/11/16 10:43:26;;;;;;;;;;;11.10;99.90;;;;;;5054664;28;19909;-74
2022/11/16 10:46:11;;;;;;;;;;;11.20;99.90;;;;;;5054836;28;20266;-73
2022/11/16 10:48:40;;;;;;;;;;;11.20;99.90;;;;;;5054258;28;19916;-75
2022/11/16 10:51:06;;;;;;;;;;;11.20;99.90;;;;;;5053959;28;19936;-75
2022/11/16 10:53:39;;;;;;;;;;;11.20;99.90;;;;;;5036875;28;19917;-76
2022/11/16 10:56:23;;;;;;;;;;;11.20;99.90;;;;;;5054156;28;19909;-75
2022/11/16 10:59:02;;;;;;;;;;;11.20;99.90;;;;;;5053581;28;20121;-75
2022/11/16 11:01:30;;;;;;;;;;;11.40;99.90;;;;;;5053958;28;19999;-74
2022/11/16 11:03:55;;;;;;;;;;;11.60;99.90;;;;;;5035841;28;19909;-74
2022/11/16 11:06:23;;;;;;;;;;;11.70;99.90;;;;;;5053941;28;19919;-75
2022/11/16 11:08:49;;;;;;;;;;;11.70;99.90;;;;;;5053936;28;19909;-75
2022/11/16 11:14:12;;;;;;;;;;;11.60;99.90;;;;;;5053959;28;19915;-72
2022/11/16 11:16:40;;;;;;;;;;;11.60;99.90;;;;;;5053833;28;19992;-73
2022/11/16 11:19:22;;;;;;;;;;;11.70;99.90;;;;;;5035945;28;19909;-73
2022/11/16 11:21:48;;;;;;;;;;;11.70;99.90;;;;;;5054670;28;19908;-74
2022/11/16 11:24:15;;;;;;;;;;;11.70;99.90;;;;;;5053707;28;20438;-74
2022/11/16 11:26:40;;;;;;;;;;;11.70;99.90;;;;;;5053904;28;19913;-73
2022/11/16 11:29:19;;;;;;;;;;;11.70;99.90;;;;;;5053606;28;20389;-73
2022/11/16 11:31:47;;;;;;;;;;;11.70;99.90;;;;;;5053866;28;19909;-74
2022/11/16 11:34:12;;;;;;;;;;;11.80;99.90;;;;;;5053804;28;20003;-73
2022/11/16 11:36:42;;;;;;;;;;;11.80;99.90;;;;;;5053779;28;19967;-75
2022/11/16 11:39:10;;;;;;;;;;;11.80;99.90;;;;;;5053763;28;20359;-74
2022/11/16 11:41:40;;;;;;;;;;;11.70;99.90;;;;;;5053501;28;19909;-74
2022/11/16 11:44:14;;;;;;;;;;;11.70;99.90;;;;;;5053687;28;19916;-74
2022/11/16 11:46:43;;;;;;;;;;;11.70;99.90;;;;;;5053495;28;19970;-73
2022/11/16 11:49:24;;;;;;;;;;;11.80;99.90;;;;;;5053789;28;19940;-72
2022/11/16 11:51:50;;;;;;;;;;;11.80;99.90;;;;;;5044156;28;19921;-72
2022/11/16 11:54:30;;;;;;;;;;;11.70;99.90;;;;;;5074220;28;20003;-74
2022/11/16 11:56:56;;;;;;;;;;;11.70;99.90;;;;;;5073456;28;19912;-74
2022/11/16 11:59:23;;;;;;;;;;;11.70;99.90;;;;;;5073715;28;19919;-73
2022/11/16 12:01:52;;;;;;;;;;;11.70;99.90;;;;;;5073365;28;19970;-73
2022/11/16 12:04:23;;;;;;;;;;;11.70;99.90;;;;;;5073600;28;19908;-74
2022/11/16 12:06:49;;;;;;;;;;;11.70;99.90;;;;;;5073183;28;20010;-72
2022/11/16 12:09:47;;;;;;;;;;;11.70;99.90;;;;;;5073908;28;19955;-73
2022/11/16 12:12:20;;;;;;;;;;;11.70;99.90;;;;;;5011763;28;19919;-73
2022/11/16 12:14:45;;;;;;;;;;;11.80;99.90;;;;;;5075127;28;19959;-74
2022/11/16 12:17:16;;;;;;;;;;;11.80;99.90;;;;;;5077140;28;20393;-74
2022/11/16 12:20:00;;;;;;;;;;;11.90;99.90;;;;;;5077445;28;19963;-73
2022/11/16 12:22:43;;;;;;;;;;;11.90;99.90;;;;;;5077388;28;20327;-73
2022/11/16 12:25:18;;;;;;;;;;;11.90;99.90;;;;;;5076994;28;19919;-73
2022/11/16 12:27:55;;;;;;;;;;;12.10;99.90;;;;;;5077181;28;19938;-73
2022/11/16 12:30:22;;;;;;;;;;;12.20;99.90;;;;;;5076984;28;19913;-75
2022/11/16 12:32:53;;;;;;;;;;;12.30;99.90;;;;;;5077159;28;19909;-75
2022/11/16 12:35:35;;;;;;;;;;;12.30;99.90;;;;;;5076748;28;19953;-74
2022/11/16 12:38:08;;;;;;;;;;;12.30;99.90;;;;;;5077352;28;19962;-74
2022/11/16 12:40:42;;;;;;;;;;;12.40;99.90;;;;;;5076680;28;20293;-73
2022/11/16 12:43:24;;;;;;;;;;;12.40;99.90;;;;;;5076613;28;19909;-74
2022/11/16 12:45:59;;;;;;;;;;;12.40;99.90;;;;;;5076890;28;19908;-73
2022/11/16 12:48:24;;;;;;;;;;;12.40;99.90;;;;;;5076610;28;20281;-74
2022/11/16 12:50:58;;;;;;;;;;;12.30;99.90;;;;;;5076009;28;19908;-73
2022/11/16 12:53:36;;;;;;;;;;;12.30;99.90;;;;;;5056768;28;19916;-74
2022/11/16 12:56:01;;;;;;;;;;;12.30;99.90;;;;;;5056902;28;19992;-74
2022/11/16 12:58:36;;;;;;;;;;;12.30;99.90;;;;;;5056673;28;19955;-73
2022/11/16 13:01:04;;;;;;;;;;;12.30;99.90;;;;;;5056572;28;19974;-72
2022/11/16 13:03:42;;;;;;;;;;;12.20;99.90;;;;;;5038355;28;19909;-74
2022/11/16 13:06:12;;;;;;;;;;;12.20;99.90;;;;;;5056708;28;19962;-73
2022/11/16 13:09:00;;;;;;;;;;;12.10;99.90;;;;;;5056189;28;19965;-75
2022/11/16 13:11:29;;;;;;;;;;;12.10;99.90;;;;;;5045294;28;20017;-74
2022/11/16 13:13:56;;;;;;;;;;;12.10;99.90;;;;;;5056402;28;20007;-73
2022/11/16 13:16:22;;;;;;;;;;;12.10;99.90;;;;;;5056023;28;20058;-72
2022/11/16 13:18:49;;;;;;;;;;;12.10;99.90;;;;;;5056594;28;19916;-73
2022/11/16 13:21:25;;;;;;;;;;;12.10;99.90;;;;;;5038106;28;19909;-73
2022/11/16 13:24:03;;;;;;;;;;;12.10;99.90;;;;;;5056219;28;19971;-73
2022/11/16 13:26:39;;;;;;;;;;;12.10;99.90;;;;;;5037391;28;20268;-73
2022/11/16 13:29:13;;;;;;;;;;;12.10;99.90;;;;;;5055768;28;19916;-74
2022/11/16 13:31:47;;;;;;;;;;;12.00;99.90;;;;;;5056339;28;19916;-74
2022/11/16 13:34:32;;;;;;;;;;;12.00;99.90;;;;;;5056016;28;19913;-73
2022/11/16 13:36:57;;;;;;;;;;;11.90;99.90;;;;;;5055992;28;20375;-73
2022/11/16 13:39:41;;;;;;;;;;;11.90;99.90;;;;;;5055605;28;19908;-73
2022/11/16 13:42:11;;;;;;;;;;;11.90;99.90;;;;;;5055857;28;19915;-72
2022/11/16 13:44:36;;;;;;;;;;;11.80;99.90;;;;;;5055447;28;20017;-73
2022/11/16 13:47:16;;;;;;;;;;;11.80;99.90;;;;;;5055662;28;19956;-73
2022/11/16 13:49:53;;;;;;;;;;;11.80;99.90;;;;;;5055450;28;19923;-72
2022/11/16 13:52:18;;;;;;;;;;;11.80;99.90;;;;;;5055206;28;19998;-73
2022/11/16 13:54:46;;;;;;;;;;;11.80;99.90;;;;;;5055840;28;19912;-73
2022/11/16 13:57:21;;;;;;;;;;;11.80;99.90;;;;;;5055847;28;19936;-73
2022/11/16 13:59:48;;;;;;;;;;;11.80;99.90;;;;;;5055239;28;19935;-72
2022/11/16 14:02:29;;;;;;;;;;;11.80;99.90;;;;;;5055216;28;19909;-73
2022/11/16 14:04:56;;;;;;;;;;;11.80;99.90;;;;;;5055133;28;19916;-72
2022/11/16 14:07:31;;;;;;;;;;;11.80;99.90;;;;;;5055071;28;20386;-72
2022/11/16 14:09:58;;;;;;;;;;;11.90;99.90;;;;;;5055348;28;19916;-72
2022/11/16 14:12:42;;;;;;;;;;;12.00;99.90;;;;;;5055013;28;19909;-73
2022/11/16 14:15:10;;;;;;;;;;;12.00;99.90;;;;;;5054919;28;19952;-73
2022/11/16 14:17:56;;;;;;;;;;;12.00;99.90;;;;;;5055178;28;19909;-72
2022/11/16 14:20:30;;;;;;;;;;;12.10;99.90;;;;;;5055114;28;20012;-75
2022/11/16 14:23:08;;;;;;;;;;;12.10;99.90;;;;;;5055064;28;19909;-73
2022/11/16 14:25:56;;;;;;;;;;;12.20;99.90;;;;;;5054730;28;19966;-72
2022/11/16 14:28:37;;;;;;;;;;;12.20;99.90;;;;;;5017312;28;20063;-74
2022/11/16 14:31:08;;;;;;;;;;;12.30;99.90;;;;;;5054613;28;19913;-73
2022/11/16 14:33:35;;;;;;;;;;;12.40;99.90;;;;;;5054899;28;19920;-72
2022/11/16 14:36:04;;;;;;;;;;;12.40;99.90;;;;;;5054563;28;20005;-73
2022/11/16 14:38:34;;;;;;;;;;;12.40;99.90;;;;;;5054289;28;19909;-72
2022/11/16 14:41:04;;;;;;;;;;;12.40;99.90;;;;;;5054456;28;19995;-74
2022/11/16 14:43:49;;;;;;;;;;;12.50;99.90;;;;;;5054934;28;19908;-72
2022/11/16 14:46:19;;;;;;;;;;;12.60;99.90;;;;;;5054318;28;19967;-73
2022/11/16 14:48:45;;;;;;;;;;;12.60;99.90;;;;;;5054300;28;19916;-73
2022/11/16 14:51:17;;;;;;;;;;;12.70;99.90;;;;;;5056004;28;19917;-72
2022/11/16 14:53:54;;;;;;;;;;;12.70;99.90;;;;;;5054217;28;19920;-73
2022/11/16 14:56:20;;;;;;;;;;;12.70;99.90;;;;;;5055273;28;19916;-72
2022/11/16 14:58:51;;;;;;;;;;;12.80;99.90;;;;;;5054442;28;19916;-73
2022/11/16 15:01:18;;;;;;;;;;;12.80;99.90;;;;;;5054073;28;19909;-73
2022/11/16 15:03:55;;;;;;;;;;;12.90;99.90;;;;;;5054040;28;19909;-73
2022/11/16 15:06:21;;;;;;;;;;;12.90;99.90;;;;;;5054225;28;20011;-73
2022/11/16 15:08:48;;;;;;;;;;;12.90;99.90;;;;;;5053974;28;20374;-73
2022/11/16 15:14:44;;;;;;;;;;;13.00;99.90;;;;;;5053632;28;20306;-74
2022/11/16 15:17:15;;;;;;;;;;;13.10;99.90;;;;;;5036746;28;20007;-73
2022/11/16 15:19:40;;;;;;;;;;;13.20;99.90;;;;;;5053834;28;20385;-73
2022/11/16 15:22:12;;;;;;;;;;;13.30;99.90;;;;;;5054005;28;20000;-74